createdAt,value
2019-01-27T00:00:38.319Z,2.10
2019-01-27T00:03:06.832Z,2.10
2019-01-27T00:05:35.405Z,2.20
2019-01-27T00:08:04.393Z,2.20
2019-01-27T00:10:32.820Z,2.20
2019-01-27T00:13:01.322Z,2.20
2019-01-27T00:15:30.258Z,2.10
2019-01-27T00:17:58.671Z,2.10
2019-01-27T00:20:27.585Z,2.10
2019-01-27T00:22:56.128Z,2.10
2019-01-27T00:25:24.507Z,2.10
2019-01-27T00:27:52.926Z,2.20
2019-01-27T00:30:23.197Z,2.20
2019-01-27T00:32:51.637Z,2.20
2019-01-27T00:35:20.063Z,2.20
2019-01-27T00:37:48.501Z,2.20
2019-01-27T00:40:18.165Z,2.10
2019-01-27T00:42:46.677Z,2.20
2019-01-27T00:45:19.200Z,2.30
2019-01-27T00:47:47.645Z,2.30
2019-01-27T00:50:18.765Z,2.20
2019-01-27T00:52:47.652Z,2.20
2019-01-27T00:55:20.896Z,2.20
2019-01-27T00:57:49.432Z,2.20
2019-01-27T01:00:23.734Z,2.20
2019-01-27T01:02:52.172Z,2.20
2019-01-27T01:05:20.552Z,2.20
2019-01-27T01:07:48.987Z,2.20
2019-01-27T01:10:22.502Z,2.20
2019-01-27T01:12:51.167Z,2.20
2019-01-27T01:15:19.814Z,2.20
2019-01-27T01:17:48.297Z,2.20
2019-01-27T01:20:19.095Z,2.20
2019-01-27T01:22:48.547Z,2.20
2019-01-27T01:25:19.966Z,2.20
2019-01-27T01:27:48.857Z,2.20
2019-01-27T01:30:19.778Z,2.20
2019-01-27T01:32:48.372Z,2.20
2019-01-27T01:35:16.814Z,2.10
2019-01-27T01:37:45.232Z,2.20
2019-01-27T01:40:16.134Z,2.10
2019-01-27T01:42:44.954Z,2.20
2019-01-27T01:45:18.999Z,2.20
2019-01-27T01:47:47.406Z,2.20
2019-01-27T01:50:15.951Z,2.20
2019-01-27T01:52:44.357Z,2.20
2019-01-27T01:55:14.718Z,2.10
2019-01-27T01:57:43.177Z,2.10
2019-01-27T02:00:17.042Z,2.10
2019-01-27T02:02:45.566Z,2.10
2019-01-27T02:05:15.977Z,2.10
2019-01-27T02:07:44.633Z,2.10
2019-01-27T02:10:18.501Z,2.10
2019-01-27T02:12:47.039Z,2.10
2019-01-27T02:15:30.604Z,2.10
2019-01-27T02:17:59.209Z,2.10
2019-01-27T02:20:27.652Z,2.10
2019-01-27T02:22:56.088Z,2.10
2019-01-27T02:25:24.506Z,2.10
2019-01-27T02:27:52.909Z,2.10
2019-01-27T02:30:21.805Z,2.10
2019-01-27T02:32:50.231Z,2.10
2019-01-27T02:35:18.672Z,2.10
2019-01-27T02:37:47.087Z,2.10
2019-01-27T02:40:15.538Z,2.00
2019-01-27T02:42:43.948Z,2.10
2019-01-27T02:45:16.216Z,2.10
2019-01-27T02:47:44.685Z,2.00
2019-01-27T02:50:13.524Z,2.10
2019-01-27T02:52:41.970Z,2.00
2019-01-27T02:55:10.509Z,2.00
2019-01-27T02:57:38.926Z,2.00
2019-01-27T03:00:18.625Z,2.00
2019-01-27T03:02:47.107Z,2.00
2019-01-27T03:05:26.414Z,2.00
2019-01-27T03:07:54.844Z,2.10
2019-01-27T03:10:23.261Z,2.10
2019-01-27T03:12:51.640Z,2.10
2019-01-27T03:15:20.114Z,2.10
2019-01-27T03:17:48.512Z,2.10
2019-01-27T03:20:16.948Z,2.10
2019-01-27T03:22:45.326Z,2.20
2019-01-27T03:25:16.698Z,2.20
2019-01-27T03:27:45.142Z,2.10
2019-01-27T03:30:19.552Z,2.20
2019-01-27T03:32:48.026Z,2.20
2019-01-27T03:35:16.501Z,2.10
2019-01-27T03:37:44.964Z,2.10
2019-01-27T03:40:18.076Z,2.10
2019-01-27T03:42:46.588Z,2.10
2019-01-27T03:45:17.139Z,2.10
2019-01-27T03:47:45.775Z,2.10
2019-01-27T03:50:21.612Z,2.20
2019-01-27T03:52:50.435Z,2.10
2019-01-27T03:55:24.580Z,2.10
2019-01-27T03:57:53.026Z,2.10
2019-01-27T04:00:23.554Z,2.10
2019-01-27T04:02:52.330Z,2.10
2019-01-27T04:05:21.180Z,2.20
2019-01-27T04:07:49.683Z,2.20
2019-01-27T04:10:26.534Z,2.20
2019-01-27T04:12:54.978Z,2.20
2019-01-27T04:15:23.395Z,2.20
2019-01-27T04:17:51.850Z,2.20
2019-01-27T04:20:23.591Z,2.20
2019-01-27T04:22:52.376Z,2.20
2019-01-27T04:25:20.861Z,2.20
2019-01-27T04:27:49.268Z,2.10
2019-01-27T04:30:22.376Z,2.20
2019-01-27T04:32:50.844Z,2.10
2019-01-27T04:35:19.368Z,2.10
2019-01-27T04:37:47.767Z,2.00
2019-01-27T04:40:18.916Z,2.00
2019-01-27T04:42:47.393Z,2.00
2019-01-27T04:45:18.415Z,2.00
2019-01-27T04:47:46.824Z,1.90
2019-01-27T04:50:15.377Z,1.90
2019-01-27T04:52:43.934Z,1.90
2019-01-27T04:55:17.585Z,1.90
2019-01-27T04:57:46.120Z,1.90
2019-01-27T05:00:17.047Z,1.90
2019-01-27T05:02:47.182Z,1.80
2019-01-27T05:05:15.577Z,1.80
2019-01-27T05:07:43.981Z,1.90
2019-01-27T05:10:13.738Z,1.80
2019-01-27T05:12:42.241Z,1.80
2019-01-27T05:15:18.252Z,1.90
2019-01-27T05:17:46.737Z,1.90
2019-01-27T05:20:15.292Z,1.90
2019-01-27T05:22:43.772Z,1.90
2019-01-27T05:25:16.956Z,1.80
2019-01-27T05:27:45.374Z,1.80
2019-01-27T05:30:24.001Z,1.90
2019-01-27T05:32:52.470Z,1.90
2019-01-27T05:35:20.946Z,1.90
2019-01-27T05:37:49.378Z,1.90
2019-01-27T05:40:19.029Z,1.90
2019-01-27T05:42:47.578Z,1.90
2019-01-27T05:45:20.973Z,1.90
2019-01-27T05:47:49.432Z,1.90
2019-01-27T05:50:18.869Z,1.90
2019-01-27T05:52:47.408Z,1.90
2019-01-27T05:55:20.025Z,1.90
2019-01-27T05:57:48.469Z,1.90
2019-01-27T06:00:26.964Z,1.90
2019-01-27T06:02:55.398Z,1.90
2019-01-27T06:05:23.810Z,1.80
2019-01-27T06:07:52.301Z,1.80
2019-01-27T06:10:20.680Z,1.80
2019-01-27T06:12:49.126Z,1.80
2019-01-27T06:15:18.916Z,1.80
2019-01-27T06:17:47.477Z,1.80
2019-01-27T06:20:17.059Z,1.80
2019-01-27T06:22:45.615Z,1.80
2019-01-27T06:25:18.620Z,1.90
2019-01-27T06:27:47.120Z,1.90
2019-01-27T06:30:23.930Z,1.90
2019-01-27T06:33:02.345Z,1.90
2019-01-27T06:35:30.756Z,1.90
2019-01-27T06:37:59.193Z,2.00
2019-01-27T06:40:27.639Z,1.90
2019-01-27T06:42:56.061Z,1.90
2019-01-27T06:45:24.547Z,1.90
2019-01-27T06:47:52.968Z,1.90
2019-01-27T06:50:21.395Z,1.80
2019-01-27T06:52:49.793Z,1.90
2019-01-27T06:55:22.073Z,1.90
2019-01-27T06:57:50.496Z,1.90
2019-01-27T07:00:41.009Z,1.90
2019-01-27T07:03:13.843Z,1.80
2019-01-27T07:05:43.909Z,1.80
2019-01-27T07:08:16.697Z,1.80
2019-01-27T07:10:55.567Z,1.80
2019-01-27T07:13:25.620Z,1.80
2019-01-27T07:16:04.676Z,1.80
2019-01-27T07:18:37.516Z,1.90
2019-01-27T07:21:07.583Z,1.80
2019-01-27T07:23:40.346Z,1.80
2019-01-27T07:26:26.848Z,1.90
2019-01-27T07:29:13.592Z,1.90
2019-01-27T07:31:55.899Z,1.90
2019-01-27T07:34:32.014Z,1.90
2019-01-27T07:37:07.846Z,1.90
2019-01-27T07:39:40.846Z,1.90
2019-01-27T07:42:10.906Z,2.00
2019-01-27T07:44:40.976Z,2.00
2019-01-27T07:47:11.034Z,2.00
2019-01-27T07:49:43.811Z,2.00
2019-01-27T07:52:30.424Z,2.10
2019-01-27T07:55:12.090Z,2.10
2019-01-27T07:57:45.052Z,2.10
2019-01-27T08:00:22.903Z,2.00
2019-01-27T08:02:58.819Z,2.10
2019-01-27T08:05:28.898Z,2.10
2019-01-27T08:07:58.955Z,2.10
2019-01-27T08:10:29.022Z,2.10
2019-01-27T08:12:59.093Z,2.10
2019-01-27T08:15:31.913Z,2.10
2019-01-27T08:18:18.242Z,2.20
2019-01-27T08:20:54.084Z,2.20
2019-01-27T08:23:24.181Z,2.20
2019-01-27T08:25:54.249Z,2.20
2019-01-27T08:28:27.068Z,2.20
2019-01-27T08:31:01.553Z,2.30
2019-01-27T08:33:34.458Z,2.30
2019-01-27T08:36:07.277Z,2.30
2019-01-27T08:38:49.363Z,2.40
2019-01-27T08:41:34.380Z,2.40
2019-01-27T08:44:13.329Z,2.50
2019-01-27T08:46:43.368Z,2.50
2019-01-27T08:49:11.772Z,2.50
2019-01-27T08:51:40.250Z,2.50
2019-01-27T08:54:08.697Z,2.40
2019-01-27T08:56:37.210Z,2.40
2019-01-27T08:59:05.708Z,2.40
2019-01-27T09:01:50.765Z,2.30
2019-01-27T09:04:20.932Z,2.30
2019-01-27T09:07:02.461Z,2.30
2019-01-27T09:09:50.540Z,2.30
2019-01-27T09:12:20.610Z,2.30
2019-01-27T09:14:53.432Z,2.20
2019-01-27T09:17:38.250Z,2.20
2019-01-27T09:20:13.708Z,2.20
2019-01-27T09:22:46.953Z,2.20
2019-01-27T09:25:32.135Z,2.20
2019-01-27T09:28:02.239Z,2.20
2019-01-27T09:30:48.721Z,2.10
2019-01-27T09:33:24.482Z,2.10
2019-01-27T09:35:54.575Z,2.10
2019-01-27T09:38:24.668Z,2.10
2019-01-27T09:40:54.801Z,2.20
2019-01-27T09:43:24.896Z,2.20
2019-01-27T09:46:05.158Z,2.30
2019-01-27T09:48:44.715Z,2.50
2019-01-27T09:51:20.490Z,2.60
2019-01-27T09:53:50.597Z,2.60
2019-01-27T09:56:20.671Z,2.60
2019-01-27T09:58:50.776Z,2.60
2019-01-27T10:01:32.363Z,2.50
2019-01-27T10:04:07.874Z,2.50
2019-01-27T10:06:43.736Z,2.40
2019-01-27T10:09:30.397Z,2.40
2019-01-27T10:12:00.491Z,2.40
2019-01-27T10:14:33.660Z,2.40
2019-01-27T10:17:03.678Z,2.60
2019-01-27T10:19:42.539Z,2.60
2019-01-27T10:22:12.630Z,2.50
2019-01-27T10:24:42.773Z,2.60
2019-01-27T10:27:15.313Z,2.60
2019-01-27T10:29:48.393Z,2.60
2019-01-27T10:32:18.421Z,2.60
2019-01-27T10:34:48.501Z,2.60
2019-01-27T10:37:21.054Z,2.70
2019-01-27T10:39:51.181Z,2.80
2019-01-27T10:42:21.293Z,2.80
2019-01-27T10:44:57.052Z,2.80
2019-01-27T10:47:29.904Z,2.80
2019-01-27T10:50:04.378Z,2.80
2019-01-27T10:52:50.545Z,2.80
2019-01-27T10:55:26.473Z,2.90
2019-01-27T10:57:56.592Z,2.80
2019-01-27T11:00:29.757Z,2.80
2019-01-27T11:03:16.488Z,2.80
2019-01-27T11:05:46.544Z,2.80
2019-01-27T11:08:22.130Z,2.90
2019-01-27T11:10:52.240Z,2.90
2019-01-27T11:13:31.638Z,2.90
2019-01-27T11:18:43.501Z,3.00
2019-01-27T11:21:19.318Z,2.90
2019-01-27T11:24:05.668Z,3.00
2019-01-27T11:26:38.579Z,3.00
2019-01-27T11:29:11.425Z,3.10
2019-01-27T11:31:44.182Z,3.20
2019-01-27T11:34:20.083Z,3.20
2019-01-27T11:36:53.147Z,3.20
2019-01-27T11:39:39.930Z,3.10
2019-01-27T11:42:12.620Z,3.20
2019-01-27T11:44:54.722Z,3.10
2019-01-27T11:47:42.848Z,3.20
2019-01-27T11:50:15.719Z,3.30
2019-01-27T11:52:45.953Z,3.20
2019-01-27T11:55:14.439Z,3.20
2019-01-27T11:57:42.827Z,3.20
2019-01-27T12:00:18.418Z,3.20
2019-01-27T12:02:46.966Z,3.30
2019-01-27T12:05:15.557Z,3.40
2019-01-27T12:07:44.026Z,3.40
2019-01-27T12:10:15.066Z,3.60
2019-01-27T12:12:43.484Z,3.70
2019-01-27T12:15:15.270Z,3.80
2019-01-27T12:17:43.720Z,3.90
2019-01-27T12:20:13.091Z,4.10
2019-01-27T12:22:41.586Z,4.30
2019-01-27T12:25:12.545Z,4.60
2019-01-27T12:27:40.975Z,4.80
2019-01-27T12:30:17.927Z,4.90
2019-01-27T12:32:46.482Z,4.90
2019-01-27T12:35:14.997Z,4.90
2019-01-27T12:37:43.603Z,5.00
2019-01-27T12:40:17.763Z,4.90
2019-01-27T12:42:46.358Z,4.90
2019-01-27T12:45:16.543Z,5.00
2019-01-27T12:47:45.119Z,4.90
2019-01-27T12:50:20.449Z,4.80
2019-01-27T12:52:51.521Z,4.90
2019-01-27T12:55:20.035Z,4.80
2019-01-27T12:57:48.429Z,4.80
2019-01-27T13:00:25.945Z,4.80
2019-01-27T13:02:54.396Z,4.80
2019-01-27T13:05:22.793Z,4.80
2019-01-27T13:07:51.262Z,4.90
2019-01-27T13:10:19.753Z,4.80
2019-01-27T13:12:48.250Z,4.70
2019-01-27T13:15:18.885Z,4.60
2019-01-27T13:17:47.344Z,4.30
2019-01-27T13:20:16.038Z,4.20
2019-01-27T13:22:45.006Z,4.20
2019-01-27T13:25:18.079Z,4.20
2019-01-27T13:27:46.481Z,4.20
2019-01-27T13:30:23.182Z,4.20
2019-01-27T13:32:51.698Z,4.30
2019-01-27T13:35:20.976Z,4.40
2019-01-27T13:37:49.509Z,4.40
2019-01-27T13:40:24.725Z,4.50
2019-01-27T13:42:53.226Z,4.40
2019-01-27T13:45:27.203Z,4.30
2019-01-27T13:47:58.882Z,4.30
2019-01-27T13:50:25.863Z,4.30
2019-01-27T13:52:54.420Z,4.20
2019-01-27T13:55:32.417Z,4.10
2019-01-27T13:58:01.632Z,4.10
2019-01-27T14:00:38.612Z,4.10
2019-01-27T14:03:07.204Z,4.10
2019-01-27T14:05:35.684Z,4.10
2019-01-27T14:08:04.298Z,4.20
2019-01-27T14:10:32.954Z,4.20
2019-01-27T14:13:01.371Z,4.20
2019-01-27T14:15:35.564Z,4.10
2019-01-27T14:18:04.811Z,4.00
2019-01-27T14:20:52.662Z,3.90
2019-01-27T14:23:21.112Z,3.80
2019-01-27T14:25:49.534Z,3.70
2019-01-27T14:28:17.963Z,3.60
2019-01-27T14:30:46.378Z,3.60
2019-01-27T14:33:14.962Z,3.50
2019-01-27T14:35:43.495Z,3.50
2019-01-27T14:38:11.957Z,3.40
2019-01-27T14:40:40.482Z,3.40
2019-01-27T14:43:08.890Z,3.40
2019-01-27T14:45:37.301Z,3.30
2019-01-27T14:48:06.668Z,3.30
2019-01-27T14:50:43.938Z,3.20
2019-01-27T14:53:12.457Z,3.20
2019-01-27T14:55:40.984Z,3.20
2019-01-27T14:58:09.549Z,3.20
2019-01-27T15:00:43.529Z,3.20
2019-01-27T15:03:12.558Z,3.20
2019-01-27T15:05:41.006Z,3.20
2019-01-27T15:08:09.609Z,3.20
2019-01-27T15:10:38.488Z,3.10
2019-01-27T15:13:07.138Z,3.10
2019-01-27T15:15:35.558Z,3.10
2019-01-27T15:18:04.949Z,3.10
2019-01-27T15:20:42.298Z,3.20
2019-01-27T15:23:10.722Z,3.20
2019-01-27T15:25:39.249Z,3.10
2019-01-27T15:28:07.709Z,3.10
2019-01-27T15:30:37.944Z,3.10
2019-01-27T15:33:07.342Z,3.10
2019-01-27T15:35:35.800Z,3.00
2019-01-27T15:38:04.622Z,2.90
2019-01-27T15:40:33.145Z,2.80
2019-01-27T15:43:03.452Z,2.80
2019-01-27T15:45:33.177Z,2.70
2019-01-27T15:48:01.847Z,2.80
2019-01-27T15:50:32.912Z,2.90
2019-01-27T15:53:01.534Z,2.80
2019-01-27T15:55:30.273Z,2.80
2019-01-27T15:57:58.817Z,2.80
2019-01-27T16:00:29.977Z,2.80
2019-01-27T16:02:58.589Z,2.70
2019-01-27T16:05:27.585Z,2.70
2019-01-27T16:07:56.152Z,2.60
2019-01-27T16:10:25.830Z,2.50
2019-01-27T16:12:56.502Z,2.50
2019-01-27T16:15:27.026Z,2.60
2019-01-27T16:17:55.793Z,2.60
2019-01-27T16:20:24.649Z,2.70
2019-01-27T16:23:00.841Z,2.70
2019-01-27T16:25:29.265Z,2.70
2019-01-27T16:27:57.669Z,2.70
2019-01-27T16:30:37.114Z,2.70
2019-01-27T16:33:07.296Z,2.70
2019-01-27T16:35:37.320Z,2.60
2019-01-27T16:38:05.962Z,2.70
2019-01-27T16:40:34.542Z,2.80
2019-01-27T16:43:02.925Z,2.80
2019-01-27T16:45:31.394Z,2.80
2019-01-27T16:48:01.800Z,2.70
2019-01-27T16:50:30.188Z,2.60
2019-01-27T16:52:58.627Z,2.60
2019-01-27T16:55:27.086Z,2.50
2019-01-27T16:57:55.542Z,2.50
2019-01-27T17:00:31.609Z,2.60
2019-01-27T17:03:02.066Z,2.70
2019-01-27T17:05:30.474Z,2.70
2019-01-27T17:08:00.842Z,2.70
2019-01-27T17:10:29.530Z,2.70
2019-01-27T17:12:57.925Z,2.60
2019-01-27T17:15:26.489Z,2.60
2019-01-27T17:17:54.980Z,2.50
2019-01-27T17:20:26.398Z,2.70
2019-01-27T17:22:55.001Z,2.60
2019-01-27T17:25:23.531Z,2.60
2019-01-27T17:27:52.128Z,2.70
2019-01-27T17:30:27.671Z,2.80
2019-01-27T17:32:56.190Z,2.70
2019-01-27T17:35:25.274Z,2.70
2019-01-27T17:37:53.847Z,2.70
2019-01-27T17:40:23.555Z,2.60
2019-01-27T17:42:52.594Z,2.60
2019-01-27T17:45:23.728Z,2.60
2019-01-27T17:47:52.241Z,2.60
2019-01-27T17:50:22.180Z,2.70
2019-01-27T17:52:50.735Z,2.60
2019-01-27T17:55:25.834Z,2.50
2019-01-27T17:57:55.878Z,2.50
2019-01-27T18:00:32.171Z,2.50
2019-01-27T18:03:02.239Z,2.60
2019-01-27T18:05:32.315Z,2.60
2019-01-27T18:08:05.104Z,2.70
2019-01-27T18:10:38.160Z,2.80
2019-01-27T18:13:08.458Z,2.90
2019-01-27T18:15:36.979Z,2.90
2019-01-27T18:18:05.593Z,3.00
2019-01-27T18:20:34.899Z,3.00
2019-01-27T18:23:03.409Z,2.90
2019-01-27T18:25:31.859Z,2.90
2019-01-27T18:28:01.522Z,2.90
2019-01-27T18:30:30.170Z,2.80
2019-01-27T18:32:58.647Z,2.80
2019-01-27T18:35:27.094Z,2.70
2019-01-27T18:37:55.593Z,2.70
2019-01-27T18:40:24.131Z,2.60
2019-01-27T18:42:52.591Z,2.60
2019-01-27T18:45:21.129Z,2.60
2019-01-27T18:47:49.554Z,2.50
2019-01-27T18:50:18.273Z,2.50
2019-01-27T18:52:47.318Z,2.60
2019-01-27T18:55:22.978Z,2.50
2019-01-27T18:57:53.085Z,2.50
2019-01-27T19:00:25.928Z,2.50
2019-01-27T19:02:56.022Z,2.60
2019-01-27T19:05:28.645Z,2.60
2019-01-27T19:08:06.494Z,2.60
2019-01-27T19:10:36.530Z,2.60
2019-01-27T19:13:09.833Z,2.60
2019-01-27T19:15:56.073Z,2.70
2019-01-27T19:18:42.618Z,2.60
2019-01-27T19:21:12.665Z,2.70
2019-01-27T19:24:00.992Z,2.60
2019-01-27T19:26:33.765Z,2.60
2019-01-27T19:29:05.136Z,2.70
2019-01-27T19:31:35.196Z,2.70
2019-01-27T19:34:21.640Z,2.70
2019-01-27T19:36:51.755Z,2.70
2019-01-27T19:39:38.061Z,2.60
2019-01-27T19:42:10.970Z,2.50
2019-01-27T19:44:50.016Z,2.50
2019-01-27T19:47:36.361Z,2.40
2019-01-27T19:50:09.900Z,2.40
2019-01-27T19:52:48.756Z,2.30
2019-01-27T19:55:24.314Z,2.30
2019-01-27T19:57:54.333Z,2.20
2019-01-27T20:00:24.394Z,2.20
2019-01-27T20:03:00.722Z,2.10
2019-01-27T20:05:30.812Z,2.20
2019-01-27T20:08:15.877Z,2.20
2019-01-27T20:10:45.989Z,2.20
2019-01-27T20:13:16.059Z,2.20
2019-01-27T20:15:54.973Z,2.30
2019-01-27T20:18:34.101Z,2.40
2019-01-27T20:21:06.589Z,2.40
2019-01-27T20:23:37.429Z,2.40
2019-01-27T20:26:24.016Z,2.50
2019-01-27T20:29:06.297Z,2.50
2019-01-27T20:31:48.353Z,2.60
2019-01-27T20:34:30.364Z,2.70
2019-01-27T20:37:09.448Z,2.60
2019-01-27T20:39:55.867Z,2.70
2019-01-27T20:42:31.890Z,2.70
2019-01-27T20:45:04.404Z,2.80
2019-01-27T20:47:43.467Z,2.70
2019-01-27T20:50:16.999Z,2.80
2019-01-27T20:52:47.053Z,2.80
2019-01-27T20:55:19.966Z,2.80
2019-01-27T20:57:55.812Z,2.80
2019-01-27T21:00:40.748Z,2.70
2019-01-27T21:03:27.326Z,2.80
2019-01-27T21:05:57.438Z,2.80
2019-01-27T21:08:27.504Z,2.80
2019-01-27T21:10:57.555Z,2.80
2019-01-27T21:13:33.724Z,2.80
2019-01-27T21:16:03.805Z,2.80
2019-01-27T21:18:36.600Z,2.80
2019-01-27T21:21:05.109Z,2.70
2019-01-27T21:23:33.545Z,2.80
2019-01-27T21:26:01.954Z,2.90
2019-01-27T21:28:30.409Z,2.90
2019-01-27T21:31:00.289Z,2.90
2019-01-27T21:33:28.737Z,2.90
2019-01-27T21:35:57.144Z,2.90
2019-01-27T21:38:25.558Z,2.80
2019-01-27T21:40:53.989Z,2.80
2019-01-27T21:43:22.466Z,2.70
2019-01-27T21:45:50.903Z,2.80
2019-01-27T21:48:19.285Z,2.70
2019-01-27T21:50:47.724Z,2.70
2019-01-27T21:53:16.137Z,2.70
2019-01-27T21:55:44.567Z,2.70
2019-01-27T21:58:13.019Z,2.70
2019-01-27T22:00:41.534Z,2.70
2019-01-27T22:03:09.966Z,2.70
2019-01-27T22:05:38.393Z,2.60
2019-01-27T22:08:06.844Z,2.60
2019-01-27T22:10:35.274Z,2.60
2019-01-27T22:13:03.926Z,2.70
2019-01-27T22:15:32.321Z,2.60
2019-01-27T22:18:00.734Z,2.60
2019-01-27T22:20:29.176Z,2.50
2019-01-27T22:22:57.569Z,2.50
2019-01-27T22:25:25.999Z,2.60
2019-01-27T22:27:54.415Z,2.60
2019-01-27T22:30:23.020Z,2.60
2019-01-27T22:32:51.431Z,2.60
2019-01-27T22:35:19.958Z,2.60
2019-01-27T22:37:48.375Z,2.60
2019-01-27T22:40:16.861Z,2.60
2019-01-27T22:42:45.390Z,2.60
2019-01-27T22:45:15.537Z,2.60
2019-01-27T22:47:44.007Z,2.60
2019-01-27T22:50:15.443Z,2.60
2019-01-27T22:52:43.998Z,2.60
2019-01-27T22:55:12.841Z,2.60
2019-01-27T22:57:41.267Z,2.60
2019-01-27T23:00:26.383Z,2.60
2019-01-27T23:02:54.824Z,2.60
2019-01-27T23:05:23.273Z,2.60
2019-01-27T23:07:51.738Z,2.60
2019-01-27T23:10:20.164Z,2.60
2019-01-27T23:12:48.619Z,2.60
2019-01-27T23:15:17.040Z,2.60
2019-01-27T23:17:45.494Z,2.50
2019-01-27T23:20:13.946Z,2.50
2019-01-27T23:22:42.404Z,2.50
2019-01-27T23:25:11.020Z,2.50
2019-01-27T23:27:39.480Z,2.40
2019-01-27T23:30:09.756Z,2.40
2019-01-27T23:32:38.170Z,2.40
2019-01-27T23:35:07.451Z,2.50
2019-01-27T23:37:36.707Z,2.40
2019-01-27T23:40:07.583Z,2.40
2019-01-27T23:42:36.391Z,2.40
2019-01-27T23:45:08.522Z,2.40
2019-01-27T23:47:36.972Z,2.40
2019-01-27T23:50:07.456Z,2.40
2019-01-27T23:52:35.914Z,2.40
2019-01-27T23:55:06.384Z,2.40
2019-01-27T23:57:34.840Z,2.40
